Latest Weather Observations for Shark Bay Airport

IDW60801

Issued at 11:35 pm WST Friday 1 August 2014 (issued every 30 minutes, with the page automatically refreshed every 10 minutes)

About weather observations | Map of weather stations | Latest weather observations for WA | Other Formats
Station Details ID: 006105 Name: SHARK BAY AIRPORT Lat: -25.89 Lon: 113.58 Height: 33.8 m
Data from the previous 72 hours. | See also: Recent months for locations in Western Australia
Date/Time
WST
Temp
°C
App
Temp
°C
Dew
Point
Rel
Hum
%
Delta-T
°C
Wind Press
QNH
hPa
Press
MSL
hPa
Rain
since 9 am
mm
Dir
 
Spd
km/h
Gust
km/h
Spd
kts
Gust
kts
01/11:30pm 16.2 13.3 12.4 78 2.1 SSE 19 24 10 13 1021.7 - 0.0
01/11:00pm 16.5 14.1 12.5 77 2.2 SSE 17 22 9 12 1021.7 1021.7 0.0
01/10:30pm 17.1 14.7 12.8 76 2.4 S 17 24 9 13 1021.7 - 0.0
01/10:00pm 17.4 14.7 12.9 75 2.5 S 19 24 10 13 1021.7 1021.7 0.0
01/09:30pm 17.6 15.0 13.3 76 2.4 S 19 26 10 14 1021.6 - 0.0
01/09:00pm 17.8 15.1 13.5 76 2.4 S 20 30 11 16 1021.6 1021.6 0.0
01/08:30pm 17.8 15.0 13.3 75 2.5 S 20 28 11 15 1021.4 - 0.0
01/08:00pm 18.0 14.7 12.9 72 2.9 S 22 30 12 16 1021.1 1021.1 0.0
01/07:30pm 18.0 15.3 11.8 67 3.4 S 17 20 9 11 1020.9 - 0.0
01/07:00pm 18.7 15.9 12.5 67 3.5 S 19 26 10 14 1020.6 1020.6 0.0
01/06:30pm 19.2 16.3 12.2 64 3.9 SSW 19 24 10 13 1020.4 - 0.0
01/06:00pm 20.0 17.2 12.5 62 4.2 SSW 19 24 10 13 1020.1 1020.1 0.0
01/05:30pm 21.4 18.0 11.4 53 5.6 SSW 20 26 11 14 1019.9 - 0.0
01/05:00pm 24.2 19.3 4.0 27 9.9 S 19 24 10 13 1019.7 1019.7 0.0
01/04:30pm 23.9 18.5 4.3 28 9.7 SSW 22 30 12 16 1019.5 - 0.0
01/04:00pm 23.2 17.3 5.6 32 8.9 SSW 26 35 14 19 1019.4 1019.4 0.0
01/03:30pm 23.5 18.0 5.9 32 8.9 SSW 24 30 13 16 1019.2 - 0.0
01/03:00pm 24.0 19.4 6.7 33 8.9 SW 20 28 11 15 1019.2 1019.2 0.0
01/02:30pm 24.4 19.9 7.1 33 9.0 SW 20 24 11 13 1019.2 - 0.0
01/02:00pm 27.3 24.1 3.1 21 12.0 ENE 9 19 5 10 1019.1 1019.1 0.0
01/01:30pm 27.2 23.1 2.3 20 12.2 E 13 19 7 10 1019.4 - 0.0
01/01:00pm 26.2 22.8 4.1 24 11.0 ESE 11 17 6 9 1019.7 1019.7 0.0
01/12:30pm 25.6 21.3 3.5 24 10.9 ENE 15 20 8 11 1020.2 - 0.0
01/12:00pm 24.6 20.1 4.4 27 10.0 ENE 17 24 9 13 1020.3 1020.3 0.0
01/11:30am 23.7 19.3 4.6 29 9.5 ENE 17 24 9 13 1020.4 - 0.0
01/11:00am 23.3 18.6 5.2 31 9.0 ENE 19 24 10 13 1020.7 1020.7 0.0
01/10:30am 21.9 17.1 4.9 33 8.4 E 19 24 10 13 1021.1 - 0.0
01/10:00am 20.7 16.5 5.5 37 7.5 E 17 24 9 13 1021.3 1021.3 0.0
01/09:30am 19.8 15.8 6.5 42 6.7 E 17 24 9 13 1021.1 - 0.0
01/09:00am 18.4 14.3 7.8 50 5.4 E 19 24 10 13 1020.8 1020.8 0.0
01/08:30am 17.2 14.0 8.6 57 4.4 ESE 15 20 8 11 1020.7 - 0.0
01/08:00am 16.0 13.3 9.0 63 3.6 ESE 13 17 7 9 1020.6 1020.6 0.0
01/07:30am 15.7 12.9 8.4 62 3.7 ESE 13 19 7 10 1020.4 - 0.0
01/07:00am 15.7 12.1 8.2 61 3.8 ESE 17 22 9 12 1019.9 1019.9 0.0
01/06:30am 15.8 12.2 8.3 61 3.8 ESE 17 20 9 11 1019.7 - 0.0
01/06:00am 15.8 12.6 8.3 61 3.8 ESE 15 19 8 10 1019.5 1019.5 0.0
01/05:30am 16.1 12.8 8.1 59 4.0 ESE 15 22 8 12 1019.3 - 0.0
01/05:00am 16.4 12.9 8.6 60 4.0 ESE 17 22 9 12 1019.2 1019.2 0.0
01/04:30am 16.4 13.2 8.4 59 4.1 ESE 15 22 8 12 1019.3 - 0.0
01/04:00am 16.4 12.8 8.4 59 4.1 ESE 17 22 9 12 1019.5 1019.5 0.0
01/03:30am 16.5 12.5 8.2 58 4.2 ESE 19 24 10 13 1019.5 - 0.0
01/03:00am 16.3 12.6 7.8 57 4.3 ESE 17 22 9 12 1019.5 1019.5 0.0
01/02:30am 16.6 12.4 7.5 55 4.6 ESE 19 26 10 14 1019.8 - 0.0
01/02:00am 17.0 12.8 7.4 53 4.8 SE 19 26 10 14 1019.9 1019.9 0.0
01/01:30am 17.0 13.0 8.2 56 4.5 SE 19 28 10 15 1020.2 - 0.0
01/01:00am 16.7 13.0 9.4 62 3.8 SE 19 28 10 15 1020.2 1020.2 0.0
01/12:30am 16.5 13.5 10.8 69 3.0 SE 17 24 9 13 1020.5 - 0.0
01/12:00am 16.5 13.3 11.4 72 2.7 SSE 19 26 10 14 1020.7 1020.7 0.0
 
Date/Time
WST
Temp
°C
App
Temp
°C
Dew
Point
Rel
Hum
%
Delta-T
°C
Wind Press
QNH
hPa
Press
MSL
hPa
Rain
since 9 am
mm
Dir
 
Spd
km/h
Gust
km/h
Spd
kts
Gust
kts
31/11:30pm 16.6 14.5 12.4 76 2.3 SSE 15 20 8 11 1021.1 - 0.0
31/11:00pm 16.5 14.7 12.1 75 2.4 S 13 20 7 11 1021.4 1021.4 0.0
31/10:30pm 16.7 15.2 12.0 74 2.6 S 11 15 6 8 1021.7 - 0.0
31/10:00pm 17.1 15.3 12.0 72 2.8 S 13 17 7 9 1021.7 1021.7 0.0
31/09:30pm 17.2 14.6 12.1 72 2.8 S 17 20 9 11 1021.6 - 0.0
31/09:00pm 17.1 15.2 11.8 71 2.9 S 13 17 7 9 1021.7 1021.7 0.0
31/08:30pm 17.2 14.8 11.5 69 3.1 S 15 19 8 10 1021.3 - 0.0
31/08:00pm 17.5 15.0 11.1 66 3.4 S 15 20 8 11 1021.1 1021.1 0.0
31/07:30pm 17.2 14.6 10.8 66 3.4 S 15 19 8 10 1020.8 - 0.0
31/07:00pm 17.6 14.3 8.2 54 4.8 S 15 19 8 10 1020.7 1020.7 0.0
31/06:30pm 17.9 15.1 8.5 54 4.8 S 13 17 7 9 1020.5 - 0.0
31/06:00pm 18.3 15.6 9.1 55 4.8 SSW 13 15 7 8 1020.5 1020.5 0.0
31/05:30pm 19.0 16.4 9.2 53 5.2 S 13 17 7 9 1020.5 - 0.0
31/05:00pm 19.5 15.7 9.1 51 5.5 SSW 19 20 10 11 1020.5 1020.5 0.0
31/04:30pm 22.0 19.2 7.0 38 7.7 SSE 11 15 6 8 1020.3 - 0.0
31/04:00pm 21.6 18.5 7.4 40 7.3 SE 13 15 7 8 1020.1 1020.1 0.0
31/03:30pm 21.2 18.4 8.5 44 6.7 SE 13 19 7 10 1020.2 - 0.0
31/03:00pm 21.2 17.9 8.1 43 6.8 SE 15 20 8 11 1020.4 1020.4 0.0
31/02:30pm 20.5 16.9 8.2 45 6.4 SE 17 22 9 12 1020.4 - 0.0
31/02:00pm 20.0 16.4 8.4 47 6.0 SSE 17 26 9 14 1020.9 1020.9 0.0
31/01:30pm 20.1 16.6 8.8 48 5.9 SE 17 22 9 12 1021.2 - 0.0
31/01:00pm 20.2 17.6 9.5 50 5.7 SE 13 19 7 10 1021.7 1021.7 0.0
31/12:30pm 19.2 15.4 9.7 54 5.1 SE 20 26 11 14 1021.9 - 0.0
31/12:00pm 18.3 15.2 10.2 59 4.3 ESE 17 20 9 11 1022.5 1022.5 0.0
31/11:30am 17.4 13.9 10.3 63 3.8 SE 19 24 10 13 1022.9 - 0.0
31/11:00am 17.1 13.4 10.0 63 3.7 SE 20 28 11 15 1023.2 1023.1 0.0
31/10:30am 17.1 13.4 10.2 64 3.7 SE 20 28 11 15 1023.5 - 0.0
31/10:00am 16.4 13.4 10.7 69 3.0 SE 17 26 9 14 1023.9 1023.8 0.0
31/09:30am 15.6 12.0 10.6 72 2.6 ESE 20 28 11 15 1023.3 - 0.0
31/09:00am 14.9 11.5 10.5 75 2.3 SE 19 30 10 16 1023.1 1023.0 0.0
31/08:30am 14.1 11.1 10.5 79 1.9 SE 17 24 9 13 1023.0 - 0.0
31/08:00am 13.4 9.8 10.0 80 1.7 SE 19 24 10 13 1022.6 1022.6 0.0
31/07:30am 13.0 10.1 9.8 81 1.6 SE 15 20 8 11 1022.3 - 0.0
31/07:00am 12.7 10.1 9.3 80 1.7 SE 13 19 7 10 1021.9 1021.9 0.0
31/06:30am 12.6 9.9 9.1 79 1.8 ESE 13 17 7 9 1021.5 - 0.0
31/06:00am 12.9 9.8 9.0 77 2.0 SE 15 19 8 10 1021.3 1021.3 0.0
31/05:30am 13.2 10.1 8.9 75 2.2 SE 15 20 8 11 1021.2 - 0.0
31/05:00am 13.4 10.7 8.9 74 2.3 SSE 13 19 7 10 1021.3 1021.3 0.0
31/04:30am 13.7 10.6 9.0 73 2.4 SE 15 20 8 11 1021.2 - 0.0
31/04:00am 14.2 10.8 9.2 72 2.5 SE 17 24 9 13 1021.1 1021.1 0.0
31/03:30am 14.2 10.8 9.2 72 2.6 SE 17 24 9 13 1021.1 - 0.0
31/03:00am 14.3 10.9 9.3 72 2.5 SSE 17 24 9 13 1021.2 1021.2 0.0
31/02:30am 14.4 11.1 9.6 73 2.5 SSE 17 24 9 13 1021.0 - 0.0
31/02:00am 14.4 11.9 9.8 74 2.4 SE 13 19 7 10 1021.4 1021.4 0.0
31/01:30am 14.4 11.5 9.8 74 2.4 SE 15 22 8 12 1021.4 - 0.0
31/01:00am 14.7 12.3 9.9 73 2.5 SE 13 19 7 10 1021.5 1021.5 0.0
31/12:30am 15.0 11.9 10.2 73 2.5 SE 17 22 9 12 1021.4 - 0.0
31/12:00am 15.4 12.1 10.8 74 2.4 SSE 19 22 10 12 1021.5 1021.5 0.0
 
Date/Time
WST
Temp
°C
App
Temp
°C
Dew
Point
Rel
Hum
%
Delta-T
°C
Wind Press
QNH
hPa
Press
MSL
hPa
Rain
since 9 am
mm
Dir
 
Spd
km/h
Gust
km/h
Spd
kts
Gust
kts
30/11:30pm 15.3 12.4 11.1 76 2.2 SSE 17 20 9 11 1021.7 - 0.0
30/11:00pm 15.4 12.9 11.2 76 2.2 SSE 15 19 8 10 1021.8 1021.8 0.0
30/10:30pm 15.9 13.1 11.3 74 2.5 SSE 17 24 9 13 1021.8 - 0.0
30/10:00pm 16.2 12.8 11.4 73 2.6 SSE 20 28 11 15 1021.6 1021.6 0.0
30/09:30pm 16.5 13.2 11.6 73 2.7 SSE 20 32 11 17 1021.7 - 0.0
30/09:00pm 16.9 13.7 11.8 72 2.8 SSE 20 30 11 16 1021.6 1021.6 0.0
30/08:30pm 17.2 13.6 11.9 71 2.9 SSE 22 30 12 16 1021.4 - 0.0
30/08:00pm 17.5 13.6 12.2 71 2.9 S 24 33 13 18 1021.2 1021.2 0.0
30/07:30pm 17.7 13.7 11.7 68 3.3 S 24 33 13 18 1021.1 - 0.0
30/07:00pm 18.0 13.1 11.3 65 3.6 S 28 39 15 21 1020.9 1020.9 0.0
30/06:30pm 18.5 14.8 11.6 64 3.8 S 22 32 12 17 1020.8 - 0.0
30/06:00pm 19.5 14.9 9.7 53 5.2 S 24 35 13 19 1020.6 1020.6 0.0
30/05:30pm 21.0 15.9 9.3 47 6.2 S 26 35 14 19 1020.4 - 0.0
30/05:00pm 22.5 16.8 6.7 36 8.1 S 26 39 14 21 1020.2 1020.2 0.0
30/04:30pm 24.0 18.5 3.9 27 9.9 S 22 30 12 16 1020.4 - 0.0
30/04:00pm 24.6 19.0 3.3 25 10.4 SSW 22 28 12 15 1020.5 1020.5 0.0
30/03:30pm 24.6 18.5 2.7 24 10.6 S 24 30 13 16 1020.4 - 0.0
30/03:00pm 24.5 19.1 4.3 27 10.0 SSW 22 32 12 17 1020.3 1020.3 0.0
30/02:30pm 23.8 18.8 6.6 33 8.9 SSW 22 30 12 16 1020.4 - 0.0
30/02:00pm 23.1 19.4 10.2 44 7.1 SW 20 28 11 15 1020.4 1020.4 0.0
30/01:30pm 23.7 19.9 8.9 39 8.0 SW 19 24 10 13 1020.5 - 0.0
30/01:00pm 24.3 20.5 9.1 38 8.2 SW 19 24 10 13 1020.8 1020.8 0.0
30/12:30pm 25.1 21.5 3.1 24 10.7 SE 11 17 6 9 1021.1 - 0.0
30/12:00pm 24.5 20.8 4.3 27 10.0 E 13 20 7 11 1021.5 1021.5 0.0
30/11:30am 23.9 20.6 6.2 32 9.1 E 13 15 7 8 1022.0 - 0.0
30/11:00am 22.7 20.5 7.7 38 7.8 E 9 15 5 8 1022.5 1022.5 0.0
30/10:30am 20.8 17.8 7.8 43 6.7 ESE 13 19 7 10 1022.6 - 0.0
30/10:00am 19.6 16.9 8.9 50 5.6 ESE 13 17 7 9 1022.7 1022.7 0.0
30/09:30am 18.0 15.0 9.1 56 4.6 ESE 15 19 8 10 1022.7 - 0.0
30/09:00am 16.5 13.3 9.9 65 3.5 SE 17 20 9 11 1022.5 1022.5 0.0
30/08:30am 14.8 12.1 10.4 75 2.3 SE 15 20 8 11 1022.5 - 0.0
30/08:00am 13.2 10.5 10.2 82 1.5 SE 15 22 8 12 1022.3 1022.3 0.0
30/07:30am 12.2 9.3 9.8 85 1.2 SSE 15 19 8 10 1022.1 - 0.0
30/07:00am 11.5 9.3 9.2 86 1.1 SSE 11 15 6 8 1021.9 1021.9 0.0
30/06:30am 11.5 8.5 9.2 86 1.2 SSE 15 19 8 10 1021.6 - 0.0
30/06:00am 11.8 9.2 9.2 84 1.3 SSE 13 17 7 9 1021.6 1021.6 0.0
30/05:30am 12.3 9.4 9.7 84 1.3 SSE 15 20 8 11 1021.3 - 0.0
30/05:00am 12.6 9.7 9.6 82 1.5 SSE 15 20 8 11 1021.0 1021.0 0.0
30/04:30am 13.0 9.8 9.8 81 1.6 S 17 20 9 11 1020.9 - 0.0
30/04:00am 13.1 9.9 9.9 81 1.6 S 17 22 9 12 1021.0 1021.0 0.0
30/03:30am 13.1 9.9 10.1 82 1.5 S 17 24 9 13 1021.2 - 0.0
30/03:00am 13.2 10.0 10.0 81 1.6 S 17 20 9 11 1021.3 1021.3 0.0
30/02:30am 12.9 10.1 10.1 83 1.4 SSE 15 20 8 11 1021.4 - 0.0
30/02:00am 13.1 10.7 9.9 81 1.6 SSE 13 17 7 9 1021.7 1021.7 0.0
30/01:30am 13.5 10.8 10.3 81 1.7 SSE 15 20 8 11 1021.7 - 0.0
30/01:00am 13.9 10.9 10.7 81 1.7 SSE 17 20 9 11 1021.7 1021.7 0.0
30/12:30am 14.0 11.1 11.0 82 1.6 SSE 17 22 9 12 1021.8 - 0.0
30/12:00am 14.0 11.1 11.0 82 1.6 SSE 17 20 9 11 1021.9 1021.9 0.0

Other Formats:

Comma delimited format used in spreadsheet applications
http://www.bom.gov.au/fwo/IDW60801/IDW60801.95402.axf

JavaScript Object Notation format (JSON) in row-major order
http://www.bom.gov.au/fwo/IDW60801/IDW60801.95402.json